Airport ICAO


09:49 UTC

1°C

Overcast


An affordable passengers' Moving Map for your aircraft. Made for the iPad and the iPhone
More information here

LFLS Saint Geoirs


Grenoble FRANCE   VFR


METAR LFLS 180930Z AUTO 34010KT 9999 OVC013 01/M02 Q1017 BECMG FEW020 0h19min

TAF LFLS 180800Z 1809/1909 34006KT 9999 BKN008 BECMG 1809/1811 BKN014 BECMG 1811/1813 9999 FEW020 BECMG 1818/1820 VRB02KT 1h49min





NOTAMS

OPEN